sensor_id;sensor_type;location;lat;lon;timestamp;temperature;humidity
871;DHT22;422;51.280;7.236;2022-11-18T00:01:44;8.20;99.90
871;DHT22;422;51.280;7.236;2022-11-18T00:04:11;8.30;99.90
871;DHT22;422;51.280;7.236;2022-11-18T00:06:40;8.30;99.90
871;DHT22;422;51.280;7.236;2022-11-18T00:09:08;8.30;99.90
871;DHT22;422;51.280;7.236;2022-11-18T00:11:35;8.30;99.90
871;DHT22;422;51.280;7.236;2022-11-18T00:14:21;8.40;99.90
871;DHT22;422;51.280;7.236;2022-11-18T00:16:51;8.30;99.90
871;DHT22;422;51.280;7.236;2022-11-18T00:19:19;8.40;99.90
871;DHT22;422;51.280;7.236;2022-11-18T00:21:48;8.40;99.90
871;DHT22;422;51.280;7.236;2022-11-18T00:24:20;8.40;99.90
871;DHT22;422;51.280;7.236;2022-11-18T00:26:48;8.40;42.30
871;DHT22;422;51.280;7.236;2022-11-18T00:29:15;8.40;1.00
871;DHT22;422;51.280;7.236;2022-11-18T00:31:43;8.50;1.00
871;DHT22;422;51.280;7.236;2022-11-18T00:34:13;8.50;99.90
871;DHT22;422;51.280;7.236;2022-11-18T00:36:42;8.50;1.00
871;DHT22;422;51.280;7.236;2022-11-18T00:39:13;8.50;99.90
871;DHT22;422;51.280;7.236;2022-11-18T00:41:43;8.40;1.00
871;DHT22;422;51.280;7.236;2022-11-18T00:44:28;8.30;99.90
871;DHT22;422;51.280;7.236;2022-11-18T00:46:55;8.20;99.90
871;DHT22;422;51.280;7.236;2022-11-18T00:49:22;8.20;99.90
871;DHT22;422;51.280;7.236;2022-11-18T00:51:50;8.20;1.00
871;DHT22;422;51.280;7.236;2022-11-18T00:54:19;8.10;99.90
871;DHT22;422;51.280;7.236;2022-11-18T00:56:46;8.10;1.00
871;DHT22;422;51.280;7.236;2022-11-18T00:59:13;8.00;1.00
871;DHT22;422;51.280;7.236;2022-11-18T01:01:42;8.10;1.00
871;DHT22;422;51.280;7.236;2022-11-18T01:04:09;8.10;1.00
871;DHT22;422;51.280;7.236;2022-11-18T01:06:36;8.10;1.00
871;DHT22;422;51.280;7.236;2022-11-18T01:09:04;8.10;99.90
871;DHT22;422;51.280;7.236;2022-11-18T01:11:32;8.20;99.90
871;DHT22;422;51.280;7.236;2022-11-18T01:14:17;8.20;99.90
871;DHT22;422;51.280;7.236;2022-11-18T01:16:44;8.30;99.90
871;DHT22;422;51.280;7.236;2022-11-18T01:19:16;8.30;99.90
871;DHT22;422;51.280;7.236;2022-11-18T01:21:43;8.20;99.90
871;DHT22;422;51.280;7.236;2022-11-18T01:24:10;8.20;99.90
871;DHT22;422;51.280;7.236;2022-11-18T01:26:42;8.20;99.90
871;DHT22;422;51.280;7.236;2022-11-18T01:29:09;8.10;99.90
871;DHT22;422;51.280;7.236;2022-11-18T01:31:37;8.20;99.90
871;DHT22;422;51.280;7.236;2022-11-18T01:34:08;8.20;99.90
871;DHT22;422;51.280;7.236;2022-11-18T01:36:35;8.20;99.90
871;DHT22;422;51.280;7.236;2022-11-18T01:39:02;8.10;99.90
871;DHT22;422;51.280;7.236;2022-11-18T01:41:30;8.20;99.90
871;DHT22;422;51.280;7.236;2022-11-18T01:44:00;8.20;99.90
871;DHT22;422;51.280;7.236;2022-11-18T01:46:31;8.20;99.90
871;DHT22;422;51.280;7.236;2022-11-18T01:49:04;8.20;99.90
871;DHT22;422;51.280;7.236;2022-11-18T01:51:35;8.10;99.90
871;DHT22;422;51.280;7.236;2022-11-18T01:54:06;8.10;99.90
871;DHT22;422;51.280;7.236;2022-11-18T01:56:38;8.20;99.90
871;DHT22;422;51.280;7.236;2022-11-18T01:59:12;8.10;99.90
871;DHT22;422;51.280;7.236;2022-11-18T02:01:40;8.10;99.90
871;DHT22;422;51.280;7.236;2022-11-18T02:04:11;8.10;99.90
871;DHT22;422;51.280;7.236;2022-11-18T02:06:41;8.10;99.90
871;DHT22;422;51.280;7.236;2022-11-18T02:09:13;8.10;99.90
871;DHT22;422;51.280;7.236;2022-11-18T02:11:41;8.10;99.90
871;DHT22;422;51.280;7.236;2022-11-18T02:14:28;8.10;99.90
871;DHT22;422;51.280;7.236;2022-11-18T02:17:03;8.00;99.90
871;DHT22;422;51.280;7.236;2022-11-18T02:22:40;8.00;99.90
871;DHT22;422;51.280;7.236;2022-11-18T02:25:21;8.10;99.90
871;DHT22;422;51.280;7.236;2022-11-18T02:28:09;8.10;99.90
871;DHT22;422;51.280;7.236;2022-11-18T02:30:49;8.10;99.90
871;DHT22;422;51.280;7.236;2022-11-18T02:33:22;8.20;99.90
871;DHT22;422;51.280;7.236;2022-11-18T02:35:55;8.10;99.90
871;DHT22;422;51.280;7.236;2022-11-18T02:38:27;8.10;99.90
871;DHT22;422;51.280;7.236;2022-11-18T02:40:58;8.00;99.90
871;DHT22;422;51.280;7.236;2022-11-18T02:43:34;8.00;99.90
871;DHT22;422;51.280;7.236;2022-11-18T02:46:07;8.00;99.90
871;DHT22;422;51.280;7.236;2022-11-18T02:48:40;7.90;99.90
871;DHT22;422;51.280;7.236;2022-11-18T02:51:11;7.70;99.90
871;DHT22;422;51.280;7.236;2022-11-18T02:53:41;7.70;99.90
871;DHT22;422;51.280;7.236;2022-11-18T02:56:09;7.70;99.90
871;DHT22;422;51.280;7.236;2022-11-18T02:58:36;7.80;99.90
871;DHT22;422;51.280;7.236;2022-11-18T03:01:05;7.80;99.90
871;DHT22;422;51.280;7.236;2022-11-18T03:03:34;7.90;99.90
871;DHT22;422;51.280;7.236;2022-11-18T03:06:08;7.90;99.90
871;DHT22;422;51.280;7.236;2022-11-18T03:08:39;7.90;99.90
871;DHT22;422;51.280;7.236;2022-11-18T03:11:15;8.00;99.90
871;DHT22;422;51.280;7.236;2022-11-18T03:13:56;8.00;99.90
871;DHT22;422;51.280;7.236;2022-11-18T03:16:33;8.00;99.90
871;DHT22;422;51.280;7.236;2022-11-18T03:19:07;8.00;99.90
871;DHT22;422;51.280;7.236;2022-11-18T03:21:44;8.00;99.90
871;DHT22;422;51.280;7.236;2022-11-18T03:24:16;8.00;99.90
871;DHT22;422;51.280;7.236;2022-11-18T03:26:50;8.00;99.90
871;DHT22;422;51.280;7.236;2022-11-18T03:29:24;8.00;99.90
871;DHT22;422;51.280;7.236;2022-11-18T03:31:57;8.10;99.90
871;DHT22;422;51.280;7.236;2022-11-18T03:34:28;8.10;99.90
871;DHT22;422;51.280;7.236;2022-11-18T03:37:00;8.10;99.90
871;DHT22;422;51.280;7.236;2022-11-18T03:39:31;8.20;99.90
871;DHT22;422;51.280;7.236;2022-11-18T03:42:06;8.20;99.90
871;DHT22;422;51.280;7.236;2022-11-18T03:44:37;8.20;99.90
871;DHT22;422;51.280;7.236;2022-11-18T03:47:11;8.20;99.90
871;DHT22;422;51.280;7.236;2022-11-18T03:49:43;8.30;99.90
871;DHT22;422;51.280;7.236;2022-11-18T03:52:14;8.30;99.90
871;DHT22;422;51.280;7.236;2022-11-18T03:54:45;8.20;99.90
871;DHT22;422;51.280;7.236;2022-11-18T03:57:17;8.30;99.90
871;DHT22;422;51.280;7.236;2022-11-18T03:59:49;8.30;99.90
871;DHT22;422;51.280;7.236;2022-11-18T04:02:22;8.30;99.90
871;DHT22;422;51.280;7.236;2022-11-18T04:04:52;8.20;99.90
871;DHT22;422;51.280;7.236;2022-11-18T04:07:27;8.30;99.90
871;DHT22;422;51.280;7.236;2022-11-18T04:10:00;8.30;99.90
871;DHT22;422;51.280;7.236;2022-11-18T04:12:32;8.30;99.90
871;DHT22;422;51.280;7.236;2022-11-18T04:15:00;8.20;99.90
871;DHT22;422;51.280;7.236;2022-11-18T04:17:30;8.20;99.90
871;DHT22;422;51.280;7.236;2022-11-18T04:19:58;8.20;99.90
871;DHT22;422;51.280;7.236;2022-11-18T04:22:27;8.30;99.90
871;DHT22;422;51.280;7.236;2022-11-18T04:24:54;8.30;99.90
871;DHT22;422;51.280;7.236;2022-11-18T04:27:21;8.30;99.90
871;DHT22;422;51.280;7.236;2022-11-18T04:29:48;8.30;99.90
871;DHT22;422;51.280;7.236;2022-11-18T04:32:16;8.40;99.90
871;DHT22;422;51.280;7.236;2022-11-18T04:34:45;8.40;99.90
871;DHT22;422;51.280;7.236;2022-11-18T04:37:12;8.40;99.90
871;DHT22;422;51.280;7.236;2022-11-18T04:39:42;8.40;99.90
871;DHT22;422;51.280;7.236;2022-11-18T04:42:12;8.40;99.90
871;DHT22;422;51.280;7.236;2022-11-18T04:44:41;8.40;99.90
871;DHT22;422;51.280;7.236;2022-11-18T04:47:08;8.40;99.90
871;DHT22;422;51.280;7.236;2022-11-18T04:49:35;8.30;99.90
871;DHT22;422;51.280;7.236;2022-11-18T04:52:04;8.30;99.90
871;DHT22;422;51.280;7.236;2022-11-18T04:54:32;8.30;99.90
871;DHT22;422;51.280;7.236;2022-11-18T04:57:00;8.30;99.90
871;DHT22;422;51.280;7.236;2022-11-18T04:59:28;8.30;99.90
871;DHT22;422;51.280;7.236;2022-11-18T05:01:56;8.30;99.90
871;DHT22;422;51.280;7.236;2022-11-18T05:04:26;8.30;99.90
871;DHT22;422;51.280;7.236;2022-11-18T05:06:55;8.30;99.90
871;DHT22;422;51.280;7.236;2022-11-18T05:09:24;8.30;99.90
871;DHT22;422;51.280;7.236;2022-11-18T05:11:51;8.30;99.90
871;DHT22;422;51.280;7.236;2022-11-18T05:14:38;8.30;99.90
871;DHT22;422;51.280;7.236;2022-11-18T05:17:07;8.40;99.90
871;DHT22;422;51.280;7.236;2022-11-18T05:19:36;8.40;99.90
871;DHT22;422;51.280;7.236;2022-11-18T05:22:04;8.40;99.90
871;DHT22;422;51.280;7.236;2022-11-18T05:24:33;8.40;99.90
871;DHT22;422;51.280;7.236;2022-11-18T05:27:00;8.40;99.90
871;DHT22;422;51.280;7.236;2022-11-18T05:29:28;8.40;99.90
871;DHT22;422;51.280;7.236;2022-11-18T05:31:58;8.50;99.90
871;DHT22;422;51.280;7.236;2022-11-18T05:34:25;8.50;99.90
871;DHT22;422;51.280;7.236;2022-11-18T05:36:52;8.40;99.90
871;DHT22;422;51.280;7.236;2022-11-18T05:39:19;8.40;99.90
871;DHT22;422;51.280;7.236;2022-11-18T05:41:48;8.40;99.90
871;DHT22;422;51.280;7.236;2022-11-18T05:44:33;8.40;99.90
871;DHT22;422;51.280;7.236;2022-11-18T05:47:00;8.30;99.90
871;DHT22;422;51.280;7.236;2022-11-18T05:49:28;8.30;99.90
871;DHT22;422;51.280;7.236;2022-11-18T05:51:55;8.40;99.90
871;DHT22;422;51.280;7.236;2022-11-18T05:54:22;8.30;99.90
871;DHT22;422;51.280;7.236;2022-11-18T05:56:53;8.40;99.90
871;DHT22;422;51.280;7.236;2022-11-18T05:59:20;8.40;99.90
871;DHT22;422;51.280;7.236;2022-11-18T06:01:53;8.40;99.90
871;DHT22;422;51.280;7.236;2022-11-18T06:04:27;8.40;99.90
871;DHT22;422;51.280;7.236;2022-11-18T06:06:58;8.40;99.90
871;DHT22;422;51.280;7.236;2022-11-18T06:09:30;8.50;99.90
871;DHT22;422;51.280;7.236;2022-11-18T06:12:00;8.40;99.90
871;DHT22;422;51.280;7.236;2022-11-18T06:14:33;8.40;99.90
871;DHT22;422;51.280;7.236;2022-11-18T06:17:03;8.50;99.90
871;DHT22;422;51.280;7.236;2022-11-18T06:19:33;8.50;99.90
871;DHT22;422;51.280;7.236;2022-11-18T06:22:01;8.50;99.90
871;DHT22;422;51.280;7.236;2022-11-18T06:24:29;8.50;99.90
871;DHT22;422;51.280;7.236;2022-11-18T06:26:59;8.50;99.90
871;DHT22;422;51.280;7.236;2022-11-18T06:29:30;8.40;99.90
871;DHT22;422;51.280;7.236;2022-11-18T06:31:57;8.40;99.90
871;DHT22;422;51.280;7.236;2022-11-18T06:34:26;8.30;99.90
871;DHT22;422;51.280;7.236;2022-11-18T06:36:54;8.30;99.90
871;DHT22;422;51.280;7.236;2022-11-18T06:39:21;8.20;99.90
871;DHT22;422;51.280;7.236;2022-11-18T06:41:54;8.20;99.90
871;DHT22;422;51.280;7.236;2022-11-18T06:44:22;8.00;99.90
871;DHT22;422;51.280;7.236;2022-11-18T06:46:49;7.90;99.90
871;DHT22;422;51.280;7.236;2022-11-18T06:49:22;8.00;99.90
871;DHT22;422;51.280;7.236;2022-11-18T06:51:49;8.00;99.90
871;DHT22;422;51.280;7.236;2022-11-18T06:54:17;8.00;99.90
871;DHT22;422;51.280;7.236;2022-11-18T06:56:46;8.10;99.90
871;DHT22;422;51.280;7.236;2022-11-18T06:59:14;8.10;99.90
871;DHT22;422;51.280;7.236;2022-11-18T07:01:48;8.30;99.90
871;DHT22;422;51.280;7.236;2022-11-18T07:04:17;8.30;99.90
871;DHT22;422;51.280;7.236;2022-11-18T07:06:47;8.40;99.90
871;DHT22;422;51.280;7.236;2022-11-18T07:09:14;8.50;99.90
871;DHT22;422;51.280;7.236;2022-11-18T07:11:45;8.50;99.90
871;DHT22;422;51.280;7.236;2022-11-18T07:14:12;8.50;99.90
871;DHT22;422;51.280;7.236;2022-11-18T07:16:39;8.50;99.90
871;DHT22;422;51.280;7.236;2022-11-18T07:19:12;8.60;99.90
871;DHT22;422;51.280;7.236;2022-11-18T07:21:45;8.60;99.90
871;DHT22;422;51.280;7.236;2022-11-18T07:24:14;8.60;99.90
871;DHT22;422;51.280;7.236;2022-11-18T07:26:42;8.70;99.90
871;DHT22;422;51.280;7.236;2022-11-18T07:29:09;8.70;99.90
871;DHT22;422;51.280;7.236;2022-11-18T07:31:36;8.70;99.90
871;DHT22;422;51.280;7.236;2022-11-18T07:34:04;8.70;99.90
871;DHT22;422;51.280;7.236;2022-11-18T07:36:34;8.80;99.90
871;DHT22;422;51.280;7.236;2022-11-18T07:39:03;8.80;99.90
871;DHT22;422;51.280;7.236;2022-11-18T07:41:30;8.80;99.90
871;DHT22;422;51.280;7.236;2022-11-18T07:44:02;8.80;99.90
871;DHT22;422;51.280;7.236;2022-11-18T07:46:32;8.80;99.90
871;DHT22;422;51.280;7.236;2022-11-18T07:49:02;8.80;99.90
871;DHT22;422;51.280;7.236;2022-11-18T07:51:33;8.80;99.90
871;DHT22;422;51.280;7.236;2022-11-18T07:54:08;8.80;99.90
871;DHT22;422;51.280;7.236;2022-11-18T07:56:35;8.90;99.90
871;DHT22;422;51.280;7.236;2022-11-18T07:59:03;8.90;99.90
871;DHT22;422;51.280;7.236;2022-11-18T08:01:30;8.90;99.90
871;DHT22;422;51.280;7.236;2022-11-18T08:04:06;8.90;99.90
871;DHT22;422;51.280;7.236;2022-11-18T08:06:35;8.90;99.90
871;DHT22;422;51.280;7.236;2022-11-18T08:09:07;8.90;99.90
871;DHT22;422;51.280;7.236;2022-11-18T08:11:34;8.90;99.90
871;DHT22;422;51.280;7.236;2022-11-18T08:14:04;8.90;99.90
871;DHT22;422;51.280;7.236;2022-11-18T08:16:34;8.90;99.90
871;DHT22;422;51.280;7.236;2022-11-18T08:19:01;8.90;99.90
871;DHT22;422;51.280;7.236;2022-11-18T08:21:28;8.90;99.90
871;DHT22;422;51.280;7.236;2022-11-18T08:23:57;9.00;99.90
871;DHT22;422;51.280;7.236;2022-11-18T08:26:25;9.00;99.90
871;DHT22;422;51.280;7.236;2022-11-18T08:28:55;9.00;99.90
871;DHT22;422;51.280;7.236;2022-11-18T08:31:25;9.00;99.90
871;DHT22;422;51.280;7.236;2022-11-18T08:33:56;9.10;99.90
871;DHT22;422;51.280;7.236;2022-11-18T08:36:26;9.10;99.90
871;DHT22;422;51.280;7.236;2022-11-18T08:38:54;9.10;99.90
871;DHT22;422;51.280;7.236;2022-11-18T08:41:31;9.10;99.90
871;DHT22;422;51.280;7.236;2022-11-18T08:43:59;9.20;99.90
871;DHT22;422;51.280;7.236;2022-11-18T08:46:27;9.30;99.90
871;DHT22;422;51.280;7.236;2022-11-18T08:48:54;9.40;99.90
871;DHT22;422;51.280;7.236;2022-11-18T08:51:21;9.50;99.90
871;DHT22;422;51.280;7.236;2022-11-18T08:53:48;9.50;99.90
871;DHT22;422;51.280;7.236;2022-11-18T08:56:17;9.60;99.90
871;DHT22;422;51.280;7.236;2022-11-18T08:58:50;9.60;99.90
871;DHT22;422;51.280;7.236;2022-11-18T09:01:17;9.60;99.90
871;DHT22;422;51.280;7.236;2022-11-18T09:03:47;9.70;99.90
871;DHT22;422;51.280;7.236;2022-11-18T09:06:18;9.70;99.90
871;DHT22;422;51.280;7.236;2022-11-18T09:08:46;9.80;99.90
871;DHT22;422;51.280;7.236;2022-11-18T09:11:14;9.80;99.90
871;DHT22;422;51.280;7.236;2022-11-18T09:13:45;9.80;99.90
871;DHT22;422;51.280;7.236;2022-11-18T09:16:14;9.70;99.90
871;DHT22;422;51.280;7.236;2022-11-18T09:18:41;9.70;99.90
871;DHT22;422;51.280;7.236;2022-11-18T09:21:11;9.80;99.90
871;DHT22;422;51.280;7.236;2022-11-18T09:23:38;9.70;99.90
871;DHT22;422;51.280;7.236;2022-11-18T09:26:07;9.60;99.90
871;DHT22;422;51.280;7.236;2022-11-18T09:28:42;9.70;99.90
871;DHT22;422;51.280;7.236;2022-11-18T09:31:11;9.70;99.90
871;DHT22;422;51.280;7.236;2022-11-18T09:33:40;9.80;99.90
871;DHT22;422;51.280;7.236;2022-11-18T09:36:12;9.70;99.90
871;DHT22;422;51.280;7.236;2022-11-18T09:38:42;9.70;99.90
871;DHT22;422;51.280;7.236;2022-11-18T09:41:25;9.60;99.90
871;DHT22;422;51.280;7.236;2022-11-18T09:44:04;9.70;99.90
871;DHT22;422;51.280;7.236;2022-11-18T09:46:47;9.60;99.90
871;DHT22;422;51.280;7.236;2022-11-18T09:49:25;9.60;99.90
871;DHT22;422;51.280;7.236;2022-11-18T09:51:54;9.60;99.90
871;DHT22;422;51.280;7.236;2022-11-18T09:54:24;9.60;99.90
871;DHT22;422;51.280;7.236;2022-11-18T09:56:55;9.60;99.90
871;DHT22;422;51.280;7.236;2022-11-18T09:59:24;9.70;99.90
871;DHT22;422;51.280;7.236;2022-11-18T10:01:55;9.70;99.90
871;DHT22;422;51.280;7.236;2022-11-18T10:04:27;9.80;99.90
871;DHT22;422;51.280;7.236;2022-11-18T10:06:55;10.00;99.90
871;DHT22;422;51.280;7.236;2022-11-18T10:09:27;10.10;99.90
871;DHT22;422;51.280;7.236;2022-11-18T10:12:18;10.10;99.90
871;DHT22;422;51.280;7.236;2022-11-18T10:15:01;10.10;99.90
871;DHT22;422;51.280;7.236;2022-11-18T10:17:44;10.00;99.90
871;DHT22;422;51.280;7.236;2022-11-18T10:20:22;9.90;99.90
871;DHT22;422;51.280;7.236;2022-11-18T10:22:54;10.00;99.90
871;DHT22;422;51.280;7.236;2022-11-18T10:25:27;10.10;99.90
871;DHT22;422;51.280;7.236;2022-11-18T10:27:54;10.10;99.90
871;DHT22;422;51.280;7.236;2022-11-18T10:30:23;10.10;99.90
871;DHT22;422;51.280;7.236;2022-11-18T10:32:56;10.10;99.90
871;DHT22;422;51.280;7.236;2022-11-18T10:35:32;10.20;99.90
871;DHT22;422;51.280;7.236;2022-11-18T10:38:03;10.30;99.90
871;DHT22;422;51.280;7.236;2022-11-18T10:40:34;10.50;99.90
871;DHT22;422;51.280;7.236;2022-11-18T10:43:03;10.60;99.90
871;DHT22;422;51.280;7.236;2022-11-18T10:45:31;10.60;99.90
871;DHT22;422;51.280;7.236;2022-11-18T10:48:01;10.90;99.90
871;DHT22;422;51.280;7.236;2022-11-18T10:50:32;11.10;99.90
871;DHT22;422;51.280;7.236;2022-11-18T10:53:00;11.20;99.90
871;DHT22;422;51.280;7.236;2022-11-18T10:55:31;11.30;99.90
871;DHT22;422;51.280;7.236;2022-11-18T10:58:06;11.60;99.90
871;DHT22;422;51.280;7.236;2022-11-18T11:00:40;11.70;99.90
871;DHT22;422;51.280;7.236;2022-11-18T11:03:26;11.70;99.90
871;DHT22;422;51.280;7.236;2022-11-18T11:06:34;11.80;99.90
871;DHT22;422;51.280;7.236;2022-11-18T11:09:10;11.40;93.30
871;DHT22;422;51.280;7.236;2022-11-18T11:11:58;11.20;1.00
871;DHT22;422;51.280;7.236;2022-11-18T11:14:30;11.10;1.00
871;DHT22;422;51.280;7.236;2022-11-18T11:17:03;11.20;1.00
871;DHT22;422;51.280;7.236;2022-11-18T11:19:47;11.30;15.30
871;DHT22;422;51.280;7.236;2022-11-18T11:22:20;11.50;1.00
871;DHT22;422;51.280;7.236;2022-11-18T11:24:48;11.30;1.00
871;DHT22;422;51.280;7.236;2022-11-18T11:27:43;11.30;1.00
871;DHT22;422;51.280;7.236;2022-11-18T11:30:17;11.20;1.00
871;DHT22;422;51.280;7.236;2022-11-18T11:38:54;10.90;1.00
871;DHT22;422;51.280;7.236;2022-11-18T11:41:28;10.90;1.00
871;DHT22;422;51.280;7.236;2022-11-18T11:44:11;11.00;1.00
871;DHT22;422;51.280;7.236;2022-11-18T11:46:55;11.00;1.00
871;DHT22;422;51.280;7.236;2022-11-18T11:49:51;11.40;1.00
871;DHT22;422;51.280;7.236;2022-11-18T11:52:44;11.70;1.00
871;DHT22;422;51.280;7.236;2022-11-18T11:55:23;12.10;1.00
871;DHT22;422;51.280;7.236;2022-11-18T11:58:10;12.10;1.00
871;DHT22;422;51.280;7.236;2022-11-18T12:00:48;12.00;1.00
871;DHT22;422;51.280;7.236;2022-11-18T12:03:38;11.70;1.00
871;DHT22;422;51.280;7.236;2022-11-18T12:06:09;11.60;1.00
871;DHT22;422;51.280;7.236;2022-11-18T12:08:38;11.60;1.00
871;DHT22;422;51.280;7.236;2022-11-18T12:11:14;11.60;1.00
871;DHT22;422;51.280;7.236;2022-11-18T12:13:50;12.00;1.00
871;DHT22;422;51.280;7.236;2022-11-18T12:16:25;12.30;1.00
871;DHT22;422;51.280;7.236;2022-11-18T12:18:57;12.50;1.00
871;DHT22;422;51.280;7.236;2022-11-18T12:21:57;12.50;1.00
871;DHT22;422;51.280;7.236;2022-11-18T12:24:37;12.50;1.00
871;DHT22;422;51.280;7.236;2022-11-18T12:27:11;12.10;1.00
871;DHT22;422;51.280;7.236;2022-11-18T12:29:54;11.90;1.00
871;DHT22;422;51.280;7.236;2022-11-18T12:32:30;12.00;1.00
871;DHT22;422;51.280;7.236;2022-11-18T12:35:02;12.10;1.00
871;DHT22;422;51.280;7.236;2022-11-18T12:37:44;12.20;1.00
871;DHT22;422;51.280;7.236;2022-11-18T12:40:30;12.20;1.00
871;DHT22;422;51.280;7.236;2022-11-18T12:43:00;12.00;1.00
871;DHT22;422;51.280;7.236;2022-11-18T12:45:51;11.70;1.00
871;DHT22;422;51.280;7.236;2022-11-18T12:48:39;11.40;1.00
871;DHT22;422;51.280;7.236;2022-11-18T12:54:21;11.30;1.00
871;DHT22;422;51.280;7.236;2022-11-18T12:56:50;11.60;1.00
871;DHT22;422;51.280;7.236;2022-11-18T12:59:29;11.50;1.00
871;DHT22;422;51.280;7.236;2022-11-18T13:02:14;11.60;1.00
871;DHT22;422;51.280;7.236;2022-11-18T13:04:42;11.60;1.00
871;DHT22;422;51.280;7.236;2022-11-18T13:07:12;11.60;1.00
871;DHT22;422;51.280;7.236;2022-11-18T13:09:53;11.50;1.00
871;DHT22;422;51.280;7.236;2022-11-18T13:12:26;11.40;1.00
871;DHT22;422;51.280;7.236;2022-11-18T13:14:56;11.40;1.00
871;DHT22;422;51.280;7.236;2022-11-18T13:17:41;11.40;1.00
871;DHT22;422;51.280;7.236;2022-11-18T13:20:24;11.60;1.00
871;DHT22;422;51.280;7.236;2022-11-18T13:23:00;11.50;1.00
871;DHT22;422;51.280;7.236;2022-11-18T13:25:47;11.50;1.00
871;DHT22;422;51.280;7.236;2022-11-18T13:28:24;11.40;1.00
871;DHT22;422;51.280;7.236;2022-11-18T13:31:02;11.40;1.00
871;DHT22;422;51.280;7.236;2022-11-18T13:33:35;11.50;1.00
871;DHT22;422;51.280;7.236;2022-11-18T13:36:15;11.60;1.00
871;DHT22;422;51.280;7.236;2022-11-18T13:38:54;11.70;1.00
871;DHT22;422;51.280;7.236;2022-11-18T13:41:24;11.70;1.00
871;DHT22;422;51.280;7.236;2022-11-18T13:44:09;11.80;1.00
871;DHT22;422;51.280;7.236;2022-11-18T13:46:42;11.90;1.00
871;DHT22;422;51.280;7.236;2022-11-18T13:49:15;12.00;1.00
871;DHT22;422;51.280;7.236;2022-11-18T13:51:51;12.10;1.00
871;DHT22;422;51.280;7.236;2022-11-18T13:54:25;11.80;1.00
871;DHT22;422;51.280;7.236;2022-11-18T13:56:58;11.80;1.00
871;DHT22;422;51.280;7.236;2022-11-18T13:59:32;11.60;1.00
871;DHT22;422;51.280;7.236;2022-11-18T14:02:08;11.50;1.00
871;DHT22;422;51.280;7.236;2022-11-18T14:04:38;11.20;1.00
871;DHT22;422;51.280;7.236;2022-11-18T14:07:25;10.90;1.00
871;DHT22;422;51.280;7.236;2022-11-18T14:09:54;10.70;1.00
871;DHT22;422;51.280;7.236;2022-11-18T14:12:24;10.60;1.00
871;DHT22;422;51.280;7.236;2022-11-18T14:15:12;10.50;1.00
871;DHT22;422;51.280;7.236;2022-11-18T14:17:52;10.40;1.00
871;DHT22;422;51.280;7.236;2022-11-18T14:20:21;10.20;1.00
871;DHT22;422;51.280;7.236;2022-11-18T14:22:52;10.20;1.00
871;DHT22;422;51.280;7.236;2022-11-18T14:25:25;10.10;1.00
871;DHT22;422;51.280;7.236;2022-11-18T14:28:08;10.00;1.00
871;DHT22;422;51.280;7.236;2022-11-18T14:30:40;9.90;1.00
871;DHT22;422;51.280;7.236;2022-11-18T14:33:15;9.80;1.00
871;DHT22;422;51.280;7.236;2022-11-18T14:35:52;9.80;1.00
871;DHT22;422;51.280;7.236;2022-11-18T14:38:28;9.70;1.00
871;DHT22;422;51.280;7.236;2022-11-18T14:41:00;9.70;1.00
871;DHT22;422;51.280;7.236;2022-11-18T14:43:31;9.60;1.00
871;DHT22;422;51.280;7.236;2022-11-18T14:46:00;9.50;1.00
871;DHT22;422;51.280;7.236;2022-11-18T14:48:30;9.50;1.00
871;DHT22;422;51.280;7.236;2022-11-18T14:50:58;9.50;1.00
871;DHT22;422;51.280;7.236;2022-11-18T14:53:25;9.50;8.60
871;DHT22;422;51.280;7.236;2022-11-18T14:55:53;9.50;10.30
871;DHT22;422;51.280;7.236;2022-11-18T14:58:25;9.50;6.50
871;DHT22;422;51.280;7.236;2022-11-18T15:00:52;9.40;1.00
871;DHT22;422;51.280;7.236;2022-11-18T15:03:19;9.40;6.80
871;DHT22;422;51.280;7.236;2022-11-18T15:05:48;9.40;11.50
871;DHT22;422;51.280;7.236;2022-11-18T15:08:16;9.30;6.00
871;DHT22;422;51.280;7.236;2022-11-18T15:10:43;9.10;30.50
871;DHT22;422;51.280;7.236;2022-11-18T15:13:10;9.10;97.20
871;DHT22;422;51.280;7.236;2022-11-18T15:15:37;9.00;98.50
871;DHT22;422;51.280;7.236;2022-11-18T15:18:04;8.90;99.90
871;DHT22;422;51.280;7.236;2022-11-18T15:20:32;9.00;99.90
871;DHT22;422;51.280;7.236;2022-11-18T15:23:04;8.90;99.90
871;DHT22;422;51.280;7.236;2022-11-18T15:25:33;8.90;99.90
871;DHT22;422;51.280;7.236;2022-11-18T15:28:00;8.90;99.90
871;DHT22;422;51.280;7.236;2022-11-18T15:30:27;8.90;99.90
871;DHT22;422;51.280;7.236;2022-11-18T15:32:57;8.80;99.90
871;DHT22;422;51.280;7.236;2022-11-18T15:35:29;8.60;1.00
871;DHT22;422;51.280;7.236;2022-11-18T15:37:58;8.50;1.00
871;DHT22;422;51.280;7.236;2022-11-18T15:40:27;8.50;1.00
871;DHT22;422;51.280;7.236;2022-11-18T15:42:55;8.30;1.00
871;DHT22;422;51.280;7.236;2022-11-18T15:45:22;8.20;99.90
871;DHT22;422;51.280;7.236;2022-11-18T15:47:50;8.10;99.90
871;DHT22;422;51.280;7.236;2022-11-18T15:50:18;8.10;1.00
871;DHT22;422;51.280;7.236;2022-11-18T15:52:48;8.00;1.00
871;DHT22;422;51.280;7.236;2022-11-18T15:55:17;7.90;1.00
871;DHT22;422;51.280;7.236;2022-11-18T15:57:49;7.90;99.90
871;DHT22;422;51.280;7.236;2022-11-18T16:00:18;7.80;99.90
871;DHT22;422;51.280;7.236;2022-11-18T16:02:45;7.70;99.90
871;DHT22;422;51.280;7.236;2022-11-18T16:05:12;7.60;99.90
871;DHT22;422;51.280;7.236;2022-11-18T16:07:40;7.60;1.00
871;DHT22;422;51.280;7.236;2022-11-18T16:10:08;7.50;1.00
871;DHT22;422;51.280;7.236;2022-11-18T16:12:55;7.40;99.90
871;DHT22;422;51.280;7.236;2022-11-18T16:15:22;7.40;1.00
871;DHT22;422;51.280;7.236;2022-11-18T16:18:06;7.30;1.00
871;DHT22;422;51.280;7.236;2022-11-18T16:20:34;7.20;1.00
871;DHT22;422;51.280;7.236;2022-11-18T16:23:01;7.20;99.90
871;DHT22;422;51.280;7.236;2022-11-18T16:25:29;7.10;99.90
871;DHT22;422;51.280;7.236;2022-11-18T16:27:58;7.10;99.90
871;DHT22;422;51.280;7.236;2022-11-18T16:30:25;7.00;99.90
871;DHT22;422;51.280;7.236;2022-11-18T16:33:10;7.00;99.90
871;DHT22;422;51.280;7.236;2022-11-18T16:35:45;7.00;99.90
871;DHT22;422;51.280;7.236;2022-11-18T16:38:16;7.00;99.90
871;DHT22;422;51.280;7.236;2022-11-18T16:40:43;7.00;1.00
871;DHT22;422;51.280;7.236;2022-11-18T16:43:15;7.00;1.00
871;DHT22;422;51.280;7.236;2022-11-18T16:45:49;6.90;14.10
871;DHT22;422;51.280;7.236;2022-11-18T16:48:17;6.80;99.90
871;DHT22;422;51.280;7.236;2022-11-18T16:50:54;6.80;99.90
871;DHT22;422;51.280;7.236;2022-11-18T16:53:23;6.70;99.90
871;DHT22;422;51.280;7.236;2022-11-18T16:56:01;6.70;99.90
871;DHT22;422;51.280;7.236;2022-11-18T16:58:30;6.70;99.90
871;DHT22;422;51.280;7.236;2022-11-18T17:01:00;6.60;99.90
871;DHT22;422;51.280;7.236;2022-11-18T17:03:38;6.50;76.70
871;DHT22;422;51.280;7.236;2022-11-18T17:06:05;6.40;1.00
871;DHT22;422;51.280;7.236;2022-11-18T17:08:34;6.40;1.00
871;DHT22;422;51.280;7.236;2022-11-18T17:11:13;6.40;1.00
871;DHT22;422;51.280;7.236;2022-11-18T17:13:43;6.30;1.00
871;DHT22;422;51.280;7.236;2022-11-18T17:16:16;6.30;1.00
871;DHT22;422;51.280;7.236;2022-11-18T17:18:50;6.20;1.00
871;DHT22;422;51.280;7.236;2022-11-18T17:21:22;6.20;9.20
871;DHT22;422;51.280;7.236;2022-11-18T17:23:51;6.00;1.00
871;DHT22;422;51.280;7.236;2022-11-18T17:26:21;5.90;99.90
871;DHT22;422;51.280;7.236;2022-11-18T17:28:50;5.90;99.90
871;DHT22;422;51.280;7.236;2022-11-18T17:31:19;5.80;99.90
871;DHT22;422;51.280;7.236;2022-11-18T17:33:47;5.80;99.90
871;DHT22;422;51.280;7.236;2022-11-18T17:36:18;5.80;99.90